Time;durP1;ratioP1;P1;durP2;ratioP2;P2;SDS_P1;SDS_P2;PMS_P1;PMS_P2;Temp;Humidity;BMP_temperature;BMP_pressure;BME280_temperature;BME280_humidity;BME280_pressure;Samples;Min_cycle;Max_cycle;Signal;HPM_P1;HPM_P2
2023/03/16 00:02:11;;;;;;;9.27;5.97;;;3.30;48.30;;;;;;5070877;28;20839;-72
2023/03/16 00:04:37;;;;;;;10.10;5.80;;;3.40;49.70;;;;;;5073260;28;20456;-71
2023/03/16 00:07:08;;;;;;;9.85;5.90;;;3.40;48.00;;;;;;5072564;28;20405;-71
2023/03/16 00:09:34;;;;;;;10.35;6.15;;;3.40;47.10;;;;;;5070438;28;20377;-71
2023/03/16 00:12:04;;;;;;;13.57;5.63;;;3.40;48.70;;;;;;5067048;28;20382;-73
2023/03/16 00:14:30;;;;;;;12.63;6.05;;;3.50;46.40;;;;;;5068486;28;20416;-70
2023/03/16 00:16:56;;;;;;;8.98;5.50;;;3.40;46.70;;;;;;5069298;28;20393;-71
2023/03/16 00:19:22;;;;;;;13.05;6.03;;;3.40;48.20;;;;;;5067085;28;20428;-73
2023/03/16 00:21:51;;;;;;;7.18;5.50;;;3.60;46.50;;;;;;5062053;28;20377;-72
2023/03/16 00:24:19;;;;;;;10.57;5.57;;;3.50;46.50;;;;;;5059727;28;20974;-72
2023/03/16 00:26:46;;;;;;;12.27;5.60;;;3.50;48.00;;;;;;5057531;28;20389;-71
2023/03/16 00:29:12;;;;;;;10.93;5.70;;;3.60;45.40;;;;;;5058473;28;20448;-72
2023/03/16 00:31:42;;;;;;;8.97;5.40;;;3.60;45.80;;;;;;5054970;28;20389;-72
2023/03/16 00:34:11;;;;;;;11.32;5.70;;;3.50;45.90;;;;;;5056446;28;20763;-72
2023/03/16 00:36:37;;;;;;;8.30;5.03;;;3.50;47.20;;;;;;5053867;28;20469;-71
2023/03/16 00:39:04;;;;;;;7.43;5.10;;;3.50;46.20;;;;;;5053822;28;20417;-71
2023/03/16 00:41:30;;;;;;;10.68;5.10;;;3.40;46.80;;;;;;5053578;28;20484;-71
2023/03/16 00:43:55;;;;;;;9.93;5.50;;;3.40;46.60;;;;;;5057877;28;20440;-71
2023/03/16 00:46:25;;;;;;;13.15;6.38;;;3.70;48.20;;;;;;5058489;28;20385;-71
2023/03/16 00:48:51;;;;;;;8.97;5.13;;;3.80;48.00;;;;;;5058960;28;20431;-71
2023/03/16 00:51:18;;;;;;;15.18;5.63;;;3.70;45.30;;;;;;5054955;28;20381;-71
2023/03/16 00:53:45;;;;;;;10.50;5.75;;;3.70;46.30;;;;;;5052298;28;20389;-70
2023/03/16 00:56:12;;;;;;;13.70;5.82;;;3.70;44.50;;;;;;5052129;28;20753;-73
2023/03/16 00:58:39;;;;;;;15.82;6.22;;;3.80;46.30;;;;;;5052263;28;20405;-71
2023/03/16 01:01:07;;;;;;;10.40;4.82;;;3.80;43.80;;;;;;5052094;28;20392;-71
2023/03/16 01:03:34;;;;;;;9.60;4.88;;;3.70;43.50;;;;;;5051499;28;20412;-71
2023/03/16 01:06:11;;;;;;;7.90;4.60;;;3.80;42.40;;;;;;5052292;28;20727;-71
2023/03/16 01:08:38;;;;;;;8.45;5.25;;;3.80;44.20;;;;;;5052172;28;20377;-71
2023/03/16 01:11:10;;;;;;;13.95;5.45;;;4.00;42.00;;;;;;5051568;28;20381;-72
2023/03/16 01:13:37;;;;;;;13.05;5.45;;;3.90;41.80;;;;;;5052003;28;20443;-71
2023/03/16 01:16:03;;;;;;;10.32;5.55;;;3.90;42.70;;;;;;5051580;28;20394;-72
2023/03/16 01:18:32;;;;;;;9.13;5.18;;;4.00;42.20;;;;;;5055308;28;20388;-70
2023/03/16 01:20:59;;;;;;;9.75;5.10;;;4.10;42.40;;;;;;5060127;28;20389;-71
2023/03/16 01:23:24;;;;;;;11.52;5.63;;;4.10;41.50;;;;;;5054067;28;20511;-72
2023/03/16 01:25:53;;;;;;;8.07;4.90;;;4.10;42.60;;;;;;5056904;28;20373;-72
2023/03/16 01:28:24;;;;;;;7.60;4.70;;;4.10;40.90;;;;;;5066243;28;20491;-71
2023/03/16 01:30:56;;;;;;;9.25;5.22;;;4.20;43.60;;;;;;5064108;28;20389;-71
2023/03/16 01:33:24;;;;;;;12.68;5.20;;;4.10;42.40;;;;;;5063515;28;20389;-71
2023/03/16 01:35:55;;;;;;;8.77;5.40;;;4.20;43.10;;;;;;5063246;28;20396;-71
2023/03/16 01:38:21;;;;;;;8.63;5.00;;;4.30;41.10;;;;;;5061758;28;20393;-71
2023/03/16 01:40:50;;;;;;;10.73;5.70;;;4.30;43.00;;;;;;5058649;28;20385;-72
2023/03/16 01:43:17;;;;;;;8.95;5.38;;;4.10;40.20;;;;;;5052348;28;20460;-71
2023/03/16 01:46:13;;;;;;;12.75;5.30;;;4.10;40.30;;;;;;5051729;28;20387;-72
2023/03/16 01:48:46;;;;;;;9.30;5.03;;;4.10;40.20;;;;;;5051520;28;20381;-72
2023/03/16 01:51:20;;;;;;;9.30;4.90;;;4.10;40.70;;;;;;5050934;28;20442;-72
2023/03/16 01:53:49;;;;;;;9.70;5.28;;;4.30;40.60;;;;;;5051028;28;20404;-72
2023/03/16 01:56:19;;;;;;;8.57;5.20;;;4.10;39.80;;;;;;5050941;28;20373;-72
2023/03/16 01:58:45;;;;;;;9.90;4.80;;;4.20;43.80;;;;;;5051198;28;20386;-72
2023/03/16 02:01:12;;;;;;;5.93;4.68;;;4.20;41.30;;;;;;5050923;28;20460;-71
2023/03/16 02:03:40;;;;;;;8.90;5.40;;;4.20;38.80;;;;;;5051030;28;20952;-71
2023/03/16 02:06:18;;;;;;;13.18;5.47;;;4.10;39.60;;;;;;5051399;28;20748;-72
2023/03/16 02:08:46;;;;;;;10.97;4.97;;;4.10;39.70;;;;;;5051466;28;20397;-73
2023/03/16 02:11:16;;;;;;;10.35;4.85;;;4.20;43.20;;;;;;5051104;28;20412;-71
2023/03/16 02:13:43;;;;;;;9.00;4.53;;;4.20;42.00;;;;;;5051474;28;20373;-71
2023/03/16 02:16:10;;;;;;;9.27;4.90;;;4.20;39.10;;;;;;5050544;28;20405;-71
2023/03/16 02:18:36;;;;;;;8.88;4.60;;;4.30;42.40;;;;;;5051132;28;20392;-71
2023/03/16 02:21:27;;;;;;;8.73;4.20;;;4.20;38.50;;;;;;5051107;28;20385;-71
2023/03/16 02:23:53;;;;;;;10.57;4.97;;;4.20;39.20;;;;;;5050966;28;20470;-71
2023/03/16 02:26:55;;;;;;;7.82;4.25;;;4.20;38.90;;;;;;5051005;28;20385;-70
2023/03/16 02:29:38;;;;;;;5.30;3.80;;;4.10;38.70;;;;;;5050930;28;20916;-71
2023/03/16 02:32:04;;;;;;;7.88;4.40;;;4.20;38.20;;;;;;5050903;28;20405;-71
2023/03/16 02:34:30;;;;;;;6.80;4.00;;;4.20;39.40;;;;;;5050671;28;20389;-71
2023/03/16 02:36:57;;;;;;;6.83;4.40;;;4.00;38.90;;;;;;5049299;28;20530;-72
2023/03/16 02:39:22;;;;;;;8.05;4.22;;;4.10;40.80;;;;;;5050810;28;20385;-72
2023/03/16 02:41:48;;;;;;;7.13;4.30;;;4.20;38.40;;;;;;5050476;28;20866;-71
2023/03/16 02:44:23;;;;;;;7.10;4.40;;;4.20;39.40;;;;;;5050493;28;20504;-72
2023/03/16 02:46:51;;;;;;;7.63;3.78;;;4.30;38.70;;;;;;5050476;28;20397;-71
2023/03/16 02:49:20;;;;;;;7.83;4.47;;;4.30;38.50;;;;;;5049210;28;20401;-72
2023/03/16 02:51:46;;;;;;;8.23;4.38;;;4.30;38.00;;;;;;5050542;28;20373;-72
2023/03/16 02:54:12;;;;;;;7.60;4.53;;;4.20;39.00;;;;;;5050533;28;20394;-71
2023/03/16 02:56:38;;;;;;;6.25;4.13;;;4.10;40.20;;;;;;5050527;28;20420;-72
2023/03/16 02:59:04;;;;;;;10.48;4.30;;;4.20;41.90;;;;;;5050546;28;20417;-71
2023/03/16 03:01:31;;;;;;;7.45;4.50;;;4.30;40.20;;;;;;5050979;28;20397;-72
2023/03/16 03:03:57;;;;;;;7.78;4.35;;;4.30;39.70;;;;;;5050307;28;20417;-71
2023/03/16 03:06:25;;;;;;;7.40;4.53;;;4.30;39.70;;;;;;5050158;28;20732;-71
2023/03/16 03:08:51;;;;;;;8.45;4.35;;;4.40;38.40;;;;;;5050449;28;20386;-72
2023/03/16 03:11:18;;;;;;;6.47;3.65;;;4.40;38.10;;;;;;5050083;28;20768;-71
2023/03/16 03:13:47;;;;;;;5.55;3.53;;;4.40;37.90;;;;;;5050285;28;20381;-71
2023/03/16 03:16:13;;;;;;;7.28;3.97;;;4.40;38.60;;;;;;5050114;28;20792;-72
2023/03/16 03:18:39;;;;;;;8.03;4.07;;;4.30;38.30;;;;;;5050288;28;20386;-71
2023/03/16 03:21:05;;;;;;;9.50;4.35;;;4.30;38.30;;;;;;5050135;28;20385;-71
2023/03/16 03:23:31;;;;;;;6.30;4.20;;;4.30;39.90;;;;;;5049688;28;20405;-71
2023/03/16 03:25:58;;;;;;;7.90;4.20;;;4.30;39.60;;;;;;5049578;28;20587;-71
2023/03/16 03:28:23;;;;;;;7.35;3.75;;;4.50;39.20;;;;;;5052449;28;20392;-71
2023/03/16 03:30:50;;;;;;;6.57;4.20;;;4.40;37.60;;;;;;5053226;28;20819;-71
2023/03/16 03:33:16;;;;;;;8.98;4.05;;;4.30;38.20;;;;;;5053064;28;20891;-71
2023/03/16 03:35:42;;;;;;;7.43;4.50;;;4.40;39.50;;;;;;5053225;28;20435;-70
2023/03/16 03:38:07;;;;;;;6.73;4.13;;;4.40;40.80;;;;;;5053352;28;20385;-71
2023/03/16 03:40:33;;;;;;;9.17;4.10;;;4.40;38.20;;;;;;5053005;28;20403;-71
2023/03/16 03:43:00;;;;;;;8.32;4.10;;;4.40;38.10;;;;;;5053197;28;20847;-71
2023/03/16 03:45:26;;;;;;;8.07;4.20;;;4.40;38.00;;;;;;5053267;28;20391;-71
2023/03/16 03:47:53;;;;;;;8.05;4.03;;;4.40;39.00;;;;;;5052992;28;20480;-71
2023/03/16 03:50:19;;;;;;;8.60;4.30;;;4.50;38.90;;;;;;5052866;28;20809;-71
2023/03/16 03:52:45;;;;;;;5.70;3.67;;;4.40;38.10;;;;;;5052926;28;20381;-70
2023/03/16 03:55:11;;;;;;;6.70;4.10;;;4.50;39.00;;;;;;5053099;28;20464;-70
2023/03/16 03:57:36;;;;;;;8.38;4.57;;;4.50;40.20;;;;;;5052687;28;20381;-71
2023/03/16 04:00:09;;;;;;;9.57;4.30;;;4.50;40.30;;;;;;5053298;28;20390;-71
2023/03/16 04:02:35;;;;;;;6.05;4.00;;;4.40;38.80;;;;;;5052850;28;20396;-71
2023/03/16 04:05:00;;;;;;;7.30;4.63;;;4.40;38.50;;;;;;5052990;28;20497;-72
2023/03/16 04:07:26;;;;;;;5.70;4.03;;;4.30;39.20;;;;;;5052084;28;20464;-71
2023/03/16 04:09:51;;;;;;;6.63;4.30;;;4.30;38.20;;;;;;5053615;28;20471;-72
2023/03/16 04:12:17;;;;;;;6.00;3.80;;;4.30;38.20;;;;;;5052741;28;20385;-71
2023/03/16 04:14:42;;;;;;;7.40;4.18;;;4.30;37.90;;;;;;5053852;28;20385;-71
2023/03/16 04:17:08;;;;;;;9.25;4.10;;;4.40;40.80;;;;;;5063549;28;20389;-71
2023/03/16 04:19:34;;;;;;;7.90;4.10;;;4.30;38.50;;;;;;5070818;28;20381;-71
2023/03/16 04:21:59;;;;;;;9.95;4.00;;;4.50;38.80;;;;;;5070323;28;20393;-71
2023/03/16 04:24:25;;;;;;;8.20;3.90;;;4.40;37.60;;;;;;5052614;28;20442;-71
2023/03/16 04:26:53;;;;;;;7.00;3.87;;;4.50;38.70;;;;;;5052530;28;20381;-72
2023/03/16 04:29:18;;;;;;;7.13;4.22;;;4.50;36.70;;;;;;5052540;28;20382;-72
2023/03/16 04:31:44;;;;;;;7.10;4.37;;;4.30;37.90;;;;;;5052300;28;20451;-70
2023/03/16 04:34:10;;;;;;;6.07;4.15;;;4.40;39.10;;;;;;5052420;28;20412;-70
2023/03/16 04:36:37;;;;;;;7.85;4.20;;;4.40;38.80;;;;;;5052257;28;20389;-72
2023/03/16 04:39:03;;;;;;;8.77;4.40;;;4.50;39.40;;;;;;5052134;28;20412;-72
2023/03/16 04:41:29;;;;;;;10.20;4.40;;;4.40;37.80;;;;;;5052020;28;20389;-71
2023/03/16 04:43:56;;;;;;;10.30;4.50;;;4.50;41.20;;;;;;5051927;28;20470;-71
2023/03/16 04:46:22;;;;;;;9.75;4.47;;;4.50;39.10;;;;;;5051843;28;20721;-72
2023/03/16 04:48:48;;;;;;;9.50;4.90;;;4.50;37.50;;;;;;5050605;28;20425;-72
2023/03/16 04:51:14;;;;;;;7.70;4.43;;;4.50;37.90;;;;;;5051566;28;20468;-71
2023/03/16 04:53:39;;;;;;;9.68;4.50;;;4.40;38.20;;;;;;5050475;28;20397;-72
2023/03/16 04:56:06;;;;;;;9.23;4.33;;;4.50;40.10;;;;;;5051538;28;20411;-72
2023/03/16 04:58:32;;;;;;;7.65;4.55;;;4.50;38.70;;;;;;5051701;28;20382;-72
2023/03/16 05:00:58;;;;;;;7.60;4.70;;;4.40;38.00;;;;;;5048977;28;20882;-73
2023/03/16 05:03:24;;;;;;;6.13;4.47;;;4.40;37.80;;;;;;5051167;28;21122;-72
2023/03/16 05:05:50;;;;;;;9.25;4.70;;;4.50;39.60;;;;;;5051112;28;20465;-71
2023/03/16 05:08:16;;;;;;;9.75;5.00;;;4.60;38.10;;;;;;5051535;28;20468;-73
2023/03/16 05:10:43;;;;;;;8.02;4.72;;;4.50;37.80;;;;;;5051645;28;20398;-72
2023/03/16 05:13:09;;;;;;;8.57;5.00;;;4.60;38.50;;;;;;5051429;28;20415;-73
2023/03/16 05:15:34;;;;;;;9.73;5.35;;;4.70;38.40;;;;;;5050873;28;20404;-73
2023/03/16 05:18:00;;;;;;;7.65;5.10;;;4.60;38.20;;;;;;5051276;28;20416;-72
2023/03/16 05:20:26;;;;;;;7.67;4.70;;;4.60;41.20;;;;;;5051682;28;20442;-72
2023/03/16 05:22:51;;;;;;;10.43;5.97;;;4.60;37.50;;;;;;5051220;28;20439;-72
2023/03/16 05:25:18;;;;;;;6.70;5.03;;;4.70;37.80;;;;;;5051135;28;20401;-73
2023/03/16 05:27:48;;;;;;;11.82;5.40;;;4.60;38.00;;;;;;5051316;28;20797;-72
2023/03/16 05:30:17;;;;;;;10.98;5.80;;;4.60;39.60;;;;;;5051735;28;20469;-72
2023/03/16 05:32:44;;;;;;;10.50;5.65;;;4.70;38.10;;;;;;5051989;28;20385;-72
2023/03/16 05:35:13;;;;;;;7.22;5.43;;;4.60;37.50;;;;;;5051349;28;20878;-73
2023/03/16 05:37:41;;;;;;;10.82;6.10;;;4.60;39.70;;;;;;5051171;28;20432;-72
2023/03/16 05:40:15;;;;;;;7.85;5.68;;;4.60;38.10;;;;;;5051524;28;20381;-73
2023/03/16 05:42:44;;;;;;;9.45;6.20;;;4.60;38.10;;;;;;5049779;28;20474;-74
2023/03/16 05:45:11;;;;;;;10.18;5.75;;;4.60;39.40;;;;;;5051139;28;20397;-73
2023/03/16 05:47:37;;;;;;;8.27;5.40;;;4.60;38.60;;;;;;5050972;28;20488;-73
2023/03/16 05:50:04;;;;;;;10.77;5.80;;;4.70;38.30;;;;;;5050388;28;20467;-73
2023/03/16 05:52:30;;;;;;;12.10;6.50;;;4.60;39.00;;;;;;5051019;28;20382;-74
2023/03/16 05:54:56;;;;;;;13.45;5.88;;;4.70;38.10;;;;;;5051569;28;20790;-75
2023/03/16 05:57:22;;;;;;;10.73;6.10;;;4.70;38.90;;;;;;5051351;28;20377;-72
2023/03/16 05:59:48;;;;;;;10.20;6.00;;;4.70;38.20;;;;;;5050708;28;20409;-75
2023/03/16 06:02:13;;;;;;;10.57;6.90;;;4.70;38.00;;;;;;5052150;28;20421;-73
2023/03/16 06:04:39;;;;;;;11.63;6.10;;;4.70;38.90;;;;;;5050927;28;20401;-73
2023/03/16 06:07:05;;;;;;;11.15;6.72;;;4.90;39.00;;;;;;5049082;28;20703;-73
2023/03/16 06:09:31;;;;;;;11.30;6.50;;;4.80;38.50;;;;;;5051754;28;20451;-73
2023/03/16 06:11:57;;;;;;;10.65;7.15;;;4.70;38.60;;;;;;5049328;28;20396;-73
2023/03/16 06:14:23;;;;;;;12.23;6.97;;;4.80;38.80;;;;;;5051144;28;20463;-73
2023/03/16 06:16:49;;;;;;;11.43;7.20;;;4.90;37.40;;;;;;5051278;28;20897;-73
2023/03/16 06:19:15;;;;;;;11.63;6.80;;;5.00;39.30;;;;;;5050988;28;20424;-73
2023/03/16 06:21:40;;;;;;;10.20;6.50;;;5.00;37.50;;;;;;5048962;28;20480;-73
2023/03/16 06:24:08;;;;;;;16.70;6.97;;;4.90;38.20;;;;;;5050331;28;20404;-72
2023/03/16 06:26:34;;;;;;;12.73;7.72;;;4.80;39.50;;;;;;5050188;28;20529;-72
2023/03/16 06:28:59;;;;;;;11.55;6.80;;;4.90;39.10;;;;;;5049785;28;20416;-72
2023/03/16 06:31:25;;;;;;;10.98;6.55;;;4.90;37.00;;;;;;5050204;28;20385;-72
2023/03/16 06:33:51;;;;;;;12.18;7.70;;;5.10;38.00;;;;;;5050447;28;20428;-74
2023/03/16 06:36:17;;;;;;;11.70;7.77;;;5.10;36.70;;;;;;5050423;28;20476;-72
2023/03/16 06:38:42;;;;;;;13.45;7.25;;;5.10;36.50;;;;;;5051082;28;20392;-72
2023/03/16 06:41:08;;;;;;;12.10;7.38;;;5.30;35.80;;;;;;5050425;28;20774;-73
2023/03/16 06:43:34;;;;;;;11.35;7.32;;;5.30;34.80;;;;;;5050123;28;20483;-74
2023/03/16 06:46:00;;;;;;;12.97;7.47;;;5.40;34.40;;;;;;5052292;28;20393;-73
2023/03/16 06:48:26;;;;;;;14.18;7.10;;;5.50;36.10;;;;;;5056755;28;20388;-73
2023/03/16 06:50:51;;;;;;;15.80;7.30;;;5.70;34.40;;;;;;5057287;28;20385;-74
2023/03/16 06:53:17;;;;;;;12.93;7.43;;;6.20;32.40;;;;;;5052101;28;20460;-74
2023/03/16 06:55:42;;;;;;;9.30;6.20;;;6.00;32.10;;;;;;5050491;28;20418;-71
2023/03/16 06:58:08;;;;;;;12.30;6.90;;;6.00;32.30;;;;;;5050134;28;20892;-72
2023/03/16 07:00:34;;;;;;;10.70;7.60;;;5.90;32.20;;;;;;5050265;28;20469;-73
2023/03/16 07:03:00;;;;;;;13.57;7.20;;;5.80;33.80;;;;;;5052504;28;20393;-74
2023/03/16 07:05:28;;;;;;;11.35;6.63;;;5.80;33.10;;;;;;5054270;28;20401;-73
2023/03/16 07:07:54;;;;;;;9.05;6.22;;;6.10;31.50;;;;;;5054963;28;20846;-72
2023/03/16 07:10:20;;;;;;;11.17;6.83;;;6.10;32.80;;;;;;5053648;28;20473;-73
2023/03/16 07:12:46;;;;;;;13.85;7.60;;;5.80;33.10;;;;;;5053749;28;20389;-74
2023/03/16 07:15:12;;;;;;;13.30;6.57;;;5.90;33.20;;;;;;5053637;28;20757;-72
2023/03/16 07:17:38;;;;;;;11.07;6.13;;;5.90;32.40;;;;;;5053923;28;20401;-72
2023/03/16 07:20:08;;;;;;;10.30;6.22;;;5.90;33.20;;;;;;5053868;28;20394;-73
2023/03/16 07:22:34;;;;;;;13.95;7.70;;;5.90;32.50;;;;;;5056081;28;20430;-73
2023/03/16 07:25:00;;;;;;;11.43;6.90;;;5.90;34.50;;;;;;5053717;28;20412;-74
2023/03/16 07:27:25;;;;;;;13.03;6.80;;;6.00;32.60;;;;;;5052620;28;20405;-73
2023/03/16 07:29:51;;;;;;;10.93;6.85;;;6.10;32.60;;;;;;5054792;28;20886;-73
2023/03/16 07:32:18;;;;;;;13.48;6.90;;;5.90;33.20;;;;;;5053135;28;20889;-73
2023/03/16 07:34:43;;;;;;;16.63;7.07;;;6.20;33.50;;;;;;5052940;28;20386;-72
2023/03/16 07:37:09;;;;;;;12.93;6.70;;;6.00;31.70;;;;;;5053167;28;20902;-73
2023/03/16 07:39:35;;;;;;;13.13;6.55;;;6.30;32.00;;;;;;5053316;28;20439;-73
2023/03/16 07:42:01;;;;;;;9.35;6.80;;;6.30;32.60;;;;;;5053016;28;20386;-74
2023/03/16 07:44:27;;;;;;;11.60;6.70;;;6.30;32.30;;;;;;5053156;28;20470;-74
2023/03/16 07:46:53;;;;;;;11.40;7.20;;;6.30;31.50;;;;;;5053433;28;20396;-73
2023/03/16 07:49:18;;;;;;;13.63;7.07;;;6.30;31.80;;;;;;5053113;28;20377;-73
2023/03/16 07:51:44;;;;;;;10.73;6.45;;;6.30;31.50;;;;;;5053003;28;20421;-74
2023/03/16 07:54:10;;;;;;;9.60;6.85;;;6.10;31.40;;;;;;5053323;28;20393;-74
2023/03/16 07:56:36;;;;;;;15.20;7.40;;;6.40;31.30;;;;;;5053281;28;20448;-74
2023/03/16 07:59:01;;;;;;;10.97;6.70;;;6.50;32.30;;;;;;5053431;28;20428;-72
2023/03/16 08:01:27;;;;;;;10.52;7.10;;;6.60;32.30;;;;;;5052540;28;20392;-74
2023/03/16 08:03:53;;;;;;;11.20;7.32;;;6.30;31.40;;;;;;5053033;28;20393;-74
2023/03/16 08:06:20;;;;;;;12.15;6.90;;;6.40;31.90;;;;;;5057185;28;20386;-72
2023/03/16 08:08:45;;;;;;;16.23;6.83;;;6.60;31.40;;;;;;5064173;28;20443;-72
2023/03/16 08:11:11;;;;;;;12.35;7.28;;;6.60;31.60;;;;;;5063641;28;20834;-72
2023/03/16 08:13:36;;;;;;;14.27;7.70;;;6.70;31.40;;;;;;5063104;28;20390;-72
2023/03/16 08:16:04;;;;;;;10.05;6.35;;;6.90;31.20;;;;;;5061853;28;20425;-73
2023/03/16 08:18:30;;;;;;;13.93;7.78;;;6.90;29.10;;;;;;5064866;28;20389;-74
2023/03/16 08:20:56;;;;;;;12.32;7.40;;;7.00;30.10;;;;;;5067071;28;20433;-71
2023/03/16 08:23:24;;;;;;;12.48;7.22;;;7.10;29.60;;;;;;5063034;28;20386;-73
2023/03/16 08:25:54;;;;;;;11.90;6.40;;;7.00;29.20;;;;;;5055745;28;20484;-73
2023/03/16 08:28:20;;;;;;;13.52;7.60;;;6.70;30.10;;;;;;5053480;28;20384;-74
2023/03/16 08:30:50;;;;;;;11.23;7.20;;;6.90;31.40;;;;;;5052192;28;20385;-73
2023/03/16 08:33:16;;;;;;;14.10;7.30;;;7.10;28.90;;;;;;5052847;28;20416;-74
2023/03/16 08:35:43;;;;;;;12.50;7.40;;;7.00;30.60;;;;;;5053060;28;20388;-73
2023/03/16 08:38:10;;;;;;;10.55;7.03;;;7.10;30.30;;;;;;5053012;28;20939;-72
2023/03/16 08:40:36;;;;;;;11.05;7.43;;;7.40;29.80;;;;;;5060566;28;20381;-74
2023/03/16 08:43:02;;;;;;;11.57;7.10;;;7.10;29.70;;;;;;5061590;28;20393;-72
2023/03/16 08:45:28;;;;;;;13.32;7.13;;;7.00;30.60;;;;;;5059991;28;20397;-73
2023/03/16 08:47:54;;;;;;;11.82;6.65;;;7.10;29.80;;;;;;5058777;28;20386;-73
2023/03/16 08:50:19;;;;;;;11.50;6.90;;;7.30;31.10;;;;;;5058222;28;20483;-73
2023/03/16 08:52:47;;;;;;;14.03;7.20;;;7.20;28.70;;;;;;5058164;28;20412;-73
2023/03/16 08:55:14;;;;;;;12.90;7.75;;;7.40;28.70;;;;;;5059469;28;20394;-74
2023/03/16 08:57:42;;;;;;;14.90;7.38;;;7.70;28.10;;;;;;5058716;28;20391;-74
2023/03/16 09:00:17;;;;;;;10.07;6.93;;;8.10;26.70;;;;;;5059001;28;20470;-73
2023/03/16 09:02:43;;;;;;;11.23;7.15;;;8.20;25.80;;;;;;5057570;28;20396;-74
2023/03/16 09:05:11;;;;;;;19.77;7.38;;;8.00;27.00;;;;;;5057191;28;20766;-75
2023/03/16 09:07:38;;;;;;;10.48;7.28;;;7.30;28.60;;;;;;5058430;28;20385;-74
2023/03/16 09:10:05;;;;;;;11.23;7.43;;;7.40;29.20;;;;;;5058658;28;20382;-73
2023/03/16 09:12:34;;;;;;;9.40;6.70;;;7.40;28.50;;;;;;5056890;28;20934;-74
2023/03/16 09:14:59;;;;;;;11.33;7.10;;;7.50;29.70;;;;;;5057903;28;20707;-73
2023/03/16 09:17:25;;;;;;;14.77;7.20;;;7.80;28.70;;;;;;5051276;28;20411;-73
2023/03/16 09:19:51;;;;;;;11.30;7.63;;;7.70;28.10;;;;;;5052077;28;20382;-73
2023/03/16 09:22:18;;;;;;;13.53;7.10;;;7.50;28.30;;;;;;5051843;28;20866;-72
2023/03/16 09:24:43;;;;;;;16.90;7.05;;;7.60;29.80;;;;;;5049581;28;20408;-72
2023/03/16 09:27:09;;;;;;;13.33;7.40;;;7.70;29.30;;;;;;5051470;28;20887;-74
2023/03/16 09:29:35;;;;;;;12.27;8.00;;;7.60;28.60;;;;;;5051775;28;20862;-73
2023/03/16 09:32:02;;;;;;;10.07;6.75;;;7.90;28.80;;;;;;5051647;28;20743;-71
2023/03/16 09:34:28;;;;;;;10.85;6.80;;;8.20;27.60;;;;;;5051984;28;20389;-74
2023/03/16 09:36:54;;;;;;;15.90;8.47;;;8.20;27.60;;;;;;5052763;28;20508;-73
2023/03/16 09:39:21;;;;;;;13.13;7.47;;;8.40;27.90;;;;;;5051518;28;20542;-74
2023/03/16 09:41:54;;;;;;;13.38;7.35;;;8.60;26.40;;;;;;5050957;28;20941;-71
2023/03/16 09:44:54;;;;;;;11.30;6.72;;;8.60;26.80;;;;;;5050996;28;20512;-72
2023/03/16 09:47:27;;;;;;;11.45;6.90;;;9.00;27.40;;;;;;5051341;28;20397;-74
2023/03/16 09:49:58;;;;;;;11.63;6.93;;;8.80;26.50;;;;;;5051301;28;20835;-73
2023/03/16 09:52:49;;;;;;;11.05;6.80;;;8.90;26.00;;;;;;5050858;28;20917;-72
2023/03/16 09:55:32;;;;;;;11.90;7.30;;;8.80;26.50;;;;;;5051117;28;20406;-74
2023/03/16 09:57:59;;;;;;;9.88;6.47;;;8.70;25.40;;;;;;5050996;28;20841;-71
2023/03/16 10:00:26;;;;;;;11.63;7.20;;;8.90;26.30;;;;;;5049504;28;20417;-72
2023/03/16 10:03:10;;;;;;;9.45;5.70;;;8.90;25.40;;;;;;5050655;28;20385;-72
2023/03/16 10:05:38;;;;;;;9.65;6.40;;;9.40;25.10;;;;;;5050781;28;20922;-74
2023/03/16 10:08:17;;;;;;;10.95;6.45;;;9.20;24.10;;;;;;5051151;28;20738;-71
2023/03/16 10:11:13;;;;;;;11.48;6.40;;;8.90;24.80;;;;;;5049250;28;20535;-71
2023/03/16 10:13:50;;;;;;;11.23;6.80;;;9.20;25.70;;;;;;5050815;28;20485;-73
2023/03/16 10:16:32;;;;;;;11.27;6.60;;;9.30;25.70;;;;;;5050669;28;20459;-73
2023/03/16 10:19:09;;;;;;;9.63;6.40;;;9.10;24.70;;;;;;5033446;28;20381;-74
2023/03/16 10:21:39;;;;;;;10.38;6.55;;;9.10;24.90;;;;;;5050639;28;20738;-73
2023/03/16 10:24:15;;;;;;;13.63;7.07;;;9.10;24.80;;;;;;5049827;28;20397;-72
2023/03/16 10:26:46;;;;;;;14.68;6.95;;;9.20;25.00;;;;;;5050658;28;20388;-74
2023/03/16 10:29:13;;;;;;;9.73;6.50;;;9.50;23.90;;;;;;5051069;28;20389;-71
2023/03/16 10:31:41;;;;;;;9.93;6.70;;;9.40;23.90;;;;;;5050628;28;20759;-73
2023/03/16 10:34:07;;;;;;;11.63;7.00;;;9.40;24.10;;;;;;5050789;28;20405;-73
2023/03/16 10:36:40;;;;;;;12.70;6.30;;;9.20;23.90;;;;;;5052324;28;20774;-72
2023/03/16 10:39:09;;;;;;;12.90;7.28;;;9.40;24.70;;;;;;5055638;28;20393;-73
2023/03/16 10:41:44;;;;;;;12.35;6.30;;;9.60;23.40;;;;;;5056073;28;20388;-73
2023/03/16 10:44:12;;;;;;;10.50;6.30;;;10.00;22.10;;;;;;5055822;28;20397;-72
2023/03/16 10:46:48;;;;;;;10.77;6.30;;;10.70;21.60;;;;;;5055028;28;20381;-73
2023/03/16 10:49:26;;;;;;;8.93;6.07;;;10.40;20.40;;;;;;5055505;28;20413;-72
2023/03/16 10:51:56;;;;;;;12.23;6.50;;;10.30;21.20;;;;;;5056553;28;20395;-73
2023/03/16 10:54:32;;;;;;;11.10;6.57;;;10.40;21.10;;;;;;5056181;28;20747;-73
2023/03/16 10:56:59;;;;;;;11.32;6.18;;;10.30;20.70;;;;;;5056019;28;20862;-73
2023/03/16 10:59:34;;;;;;;10.15;5.82;;;10.60;20.70;;;;;;5056012;28;20392;-73
2023/03/16 11:02:19;;;;;;;9.88;5.72;;;11.20;20.20;;;;;;5056944;28;20780;-73
2023/03/16 11:04:46;;;;;;;9.20;5.60;;;11.30;18.00;;;;;;5055557;28;20404;-72
2023/03/16 11:07:17;;;;;;;11.90;4.93;;;10.80;19.00;;;;;;5055306;28;20389;-72
2023/03/16 11:09:43;;;;;;;8.68;5.10;;;11.50;18.30;;;;;;5053580;28;20385;-72
2023/03/16 11:12:29;;;;;;;9.15;4.95;;;11.40;18.50;;;;;;5054258;28;20377;-72
2023/03/16 11:15:03;;;;;;;8.38;5.00;;;11.70;18.10;;;;;;5055598;28;20793;-74
2023/03/16 11:17:44;;;;;;;10.25;5.20;;;11.00;18.10;;;;;;5057028;28;20401;-72
2023/03/16 11:20:17;;;;;;;7.28;5.25;;;10.90;19.10;;;;;;5055224;28;20400;-74
2023/03/16 11:22:45;;;;;;;9.43;4.78;;;10.90;18.90;;;;;;5054978;28;20381;-73
2023/03/16 11:25:20;;;;;;;10.55;4.72;;;11.00;18.50;;;;;;5054505;28;20401;-73
2023/03/16 11:28:10;;;;;;;11.68;4.97;;;11.40;18.10;;;;;;5054093;28;20422;-73
2023/03/16 11:30:45;;;;;;;7.60;4.55;;;11.80;17.70;;;;;;5055554;28;20480;-73
2023/03/16 11:33:13;;;;;;;7.45;4.22;;;11.90;17.40;;;;;;5055437;28;20395;-73
2023/03/16 11:36:07;;;;;;;5.63;4.10;;;11.80;16.60;;;;;;5051979;28;20874;-73
2023/03/16 11:38:46;;;;;;;9.77;4.70;;;11.80;17.00;;;;;;5054222;28;20396;-72
2023/03/16 11:41:33;;;;;;;8.38;4.10;;;11.20;16.80;;;;;;5053638;28;20858;-71
2023/03/16 11:44:12;;;;;;;8.10;3.97;;;11.20;17.60;;;;;;5052475;28;20405;-73
2023/03/16 11:47:04;;;;;;;8.30;4.53;;;11.10;17.40;;;;;;5053974;28;20388;-73
2023/03/16 11:50:17;;;;;;;9.07;4.10;;;11.00;17.90;;;;;;5051995;28;20807;-72
2023/03/16 11:53:05;;;;;;;8.38;4.18;;;11.20;18.10;;;;;;5031734;28;20894;-74
2023/03/16 11:55:49;;;;;;;9.82;4.50;;;11.00;17.60;;;;;;5052992;28;20392;-74
2023/03/16 11:58:33;;;;;;;9.13;4.70;;;11.30;17.60;;;;;;5054432;28;20392;-73
2023/03/16 12:01:41;;;;;;;7.93;4.07;;;11.30;17.60;;;;;;5053801;28;20381;-72
2023/03/16 12:04:30;;;;;;;9.30;4.50;;;11.60;17.60;;;;;;5043219;28;20482;-73
2023/03/16 12:06:59;;;;;;;7.93;4.40;;;11.60;16.80;;;;;;5054152;28;20373;-72
2023/03/16 12:09:50;;;;;;;6.78;4.15;;;11.70;16.90;;;;;;5054655;28;20465;-74
2023/03/16 12:13:00;;;;;;;6.28;3.90;;;11.80;16.90;;;;;;5054617;28;20377;-74
2023/03/16 12:15:34;;;;;;;6.82;4.30;;;11.80;16.30;;;;;;5049128;28;20393;-74
2023/03/16 12:18:09;;;;;;;8.82;4.80;;;12.00;16.90;;;;;;5054382;28;20409;-74
2023/03/16 12:21:01;;;;;;;9.52;4.60;;;12.20;16.80;;;;;;5054845;28;20385;-75
2023/03/16 12:23:54;;;;;;;9.55;4.10;;;11.80;16.40;;;;;;5061273;28;20389;-71
2023/03/16 12:26:22;;;;;;;7.57;3.97;;;11.90;16.90;;;;;;5062059;28;20380;-73
2023/03/16 12:28:50;;;;;;;8.45;4.40;;;12.00;16.40;;;;;;5056156;28;20381;-74
2023/03/16 12:31:18;;;;;;;6.70;4.05;;;12.30;16.20;;;;;;5052606;28;20404;-75
2023/03/16 12:34:02;;;;;;;6.47;4.10;;;12.40;16.90;;;;;;5053207;28;20392;-74
2023/03/16 12:36:33;;;;;;;9.35;4.18;;;11.90;16.50;;;;;;5052686;28;20377;-73
2023/03/16 12:39:04;;;;;;;9.63;4.00;;;11.90;17.30;;;;;;5051264;28;20455;-75
2023/03/16 12:41:42;;;;;;;8.88;4.40;;;12.20;17.10;;;;;;5052625;28;20389;-75
2023/03/16 12:44:19;;;;;;;8.32;3.78;;;12.10;16.40;;;;;;5051899;28;20412;-75
2023/03/16 12:47:05;;;;;;;5.60;4.38;;;11.90;16.60;;;;;;5053015;28;20489;-74
2023/03/16 12:49:32;;;;;;;6.03;3.90;;;11.70;17.20;;;;;;5053773;28;20390;-74
2023/03/16 12:52:01;;;;;;;6.57;3.70;;;12.00;16.70;;;;;;5052583;28;20487;-72
2023/03/16 12:54:27;;;;;;;10.60;4.05;;;12.00;16.70;;;;;;5052983;28;20385;-74
2023/03/16 12:57:00;;;;;;;8.20;3.60;;;12.50;16.40;;;;;;5052974;28;20394;-76
2023/03/16 12:59:39;;;;;;;5.22;3.95;;;12.40;15.90;;;;;;5053347;28;20401;-74
2023/03/16 13:02:13;;;;;;;5.82;3.35;;;12.20;16.80;;;;;;5055478;28;20382;-73
2023/03/16 13:04:43;;;;;;;8.03;4.00;;;12.30;16.40;;;;;;5070259;28;20563;-73